Dk Ione — 3ETX — position and weather

sailwx.info

Track history (hours):
 
Tides and Currents Weather Stations Pressure Air Temp Water Temp Dewpoint Dewpoint Depression Visibility Wind Speed Wind Dir Waves Ship Positions

Dk Ione

Last reported at 2015-Mar-31 06:28 UTC. Time now 2015-Mar-31 08:25 UTC.
Position N 29°44' W 095°17'.

Length 196 m; draft 8.5 m.

Type: Cargo ship. MMSI: 353245000.

Date/timePositionNaut miles runAvg speedWind from/ knotsBaromVisibWave heightAir tempDewpointWater temp
2015-Mar-31 06:28N 29°44' W 095°17'0 0.0
2015-Mar-31 05:19N 29°44' W 095°17'0 0.0
2015-Mar-31 03:28N 29°44' W 095°17'0 0.0
2015-Mar-31 02:28N 29°44' W 095°17'0 0.0
2015-Mar-31 01:16N 29°44' W 095°17'0 0.0
2015-Mar-31 00:19N 29°44' W 095°17'0 0.0
2015-Mar-30 22:10N 29°44' W 095°17'0 0.0
2015-Mar-30 21:31N 29°44' W 095°17'0 0.0
2015-Mar-30 18:03N 29°44' W 095°17'0 0.0
2015-Mar-30 17:21N 29°44' W 095°17'0 0.0
2015-Mar-30 16:04N 29°44' W 095°17'0 0.0
2015-Mar-30 15:28N 29°44' W 095°17'0 0.0
2015-Mar-30 14:31N 29°44' W 095°17'0 0.0
2015-Mar-30 13:22N 29°44' W 095°17'0 0.0
2015-Mar-30 10:28N 29°44' W 095°17'0 0.0
2015-Mar-30 09:28N 29°44' W 095°17'0 0.0
2015-Mar-30 08:19N 29°44' W 095°17'0 0.0
2015-Mar-30 07:34N 29°44' W 095°17'0 0.0
2015-Mar-30 06:28N 29°44' W 095°17'0 0.0
2015-Mar-30 05:34N 29°44' W 095°17'0 0.0
2015-Mar-30 04:15N 29°44' W 095°17'0 0.0
2015-Mar-30 03:07N 29°44' W 095°17'0 0.0
2015-Mar-30 02:33N 29°44' W 095°17'0 0.0
2015-Mar-30 01:24N 29°44' W 095°17'0 0.0
2015-Mar-30 00:15N 29°44' W 095°17'0 0.0
2015-Mar-29 23:28N 29°44' W 095°17'0 0.0
2015-Mar-29 22:33N 29°44' W 095°17'0 0.0
2015-Mar-29 21:27N 29°44' W 095°17'0 0.0
2015-Mar-29 20:33N 29°44' W 095°17'0 0.0
2015-Mar-29 19:34N 29°44' W 095°17'0 0.0
2015-Mar-29 17:31N 29°44' W 095°17'4 3.8
2015-Mar-29 16:31N 29°44' W 095°12'5 5.6
2015-Mar-29 15:33N 29°45' W 095°06'6 6.1
2015-Mar-29 14:33N 29°42' W 094°60'1110.6
2015-Mar-29 13:33N 29°33' W 094°54'1111.2
2015-Mar-29 12:33N 29°22' W 094°48'12 1.8
2015-Mar-29 05:32N 29°13' W 094°39'0 0.0
2015-Mar-28 11:05N 29°13' W 094°39'0 0.0
2015-Mar-28 02:32N 29°13' W 094°38'  
2015-Mar-25 05:29N 29°54' W 089°54'1110.8
2015-Mar-25 04:27N 29°55' W 090°07'0 0.0
2015-Mar-24 11:26N 29°55' W 090°07'0 0.0
2015-Mar-24 09:26N 29°55' W 090°07'0 0.0
2015-Mar-24 06:17N 29°55' W 090°07'0 0.0
2015-Mar-24 03:14N 29°55' W 090°07'0 0.0
2015-Mar-24 01:32N 29°55' W 090°07'0 0.0
2015-Mar-24 00:23N 29°55' W 090°07'0 0.0
2015-Mar-23 18:05N 29°55' W 090°07'0 0.0
2015-Mar-23 11:14N 29°55' W 090°07'0 0.0
2015-Mar-23 09:29N 29°55' W 090°07'0 0.0
2015-Mar-23 06:08N 29°55' W 090°07'0 0.0
2015-Mar-23 04:29N 29°55' W 090°07'0 0.0
2015-Mar-23 01:14N 29°55' W 090°07'0 0.0
2015-Mar-23 00:29N 29°55' W 090°07'0 0.0
2015-Mar-22 21:23N 29°55' W 090°07'0 0.0
2015-Mar-22 16:08N 29°55' W 090°07'0 0.0
2015-Mar-22 11:26N 29°55' W 090°07'0 0.0
2015-Mar-22 06:14N 29°55' W 090°07'0 0.0
2015-Mar-22 01:16N 29°55' W 090°07'0 0.0
2015-Mar-21 17:13N 29°55' W 090°07'0 0.0
2015-Mar-21 14:16N 29°55' W 090°07'0 0.0
2015-Mar-21 09:26N 29°55' W 090°07'  
Track history (hours):
 
Tides and Currents Weather Stations Pressure Air Temp Water Temp Dewpoint Dewpoint Depression Visibility Wind Speed Wind Dir Waves Ship Positions

Dk Ione

Last reported at 2015-Mar-31 06:28 UTC. Time now 2015-Mar-31 08:25 UTC.
Position N 29°44' W 095°17'.

Length 196 m; draft 8.5 m.

Type: Cargo ship. MMSI: 353245000.

Date/timePositionNaut miles runAvg speedWind from/ knotsBaromVisibWave heightAir tempDewpointWater temp
2015-Mar-31 06:28N 29°44' W 095°17'0 0.0
2015-Mar-31 05:19N 29°44' W 095°17'0 0.0
2015-Mar-31 03:28N 29°44' W 095°17'0 0.0
2015-Mar-31 02:28N 29°44' W 095°17'0 0.0
2015-Mar-31 01:16N 29°44' W 095°17'0 0.0
2015-Mar-31 00:19N 29°44' W 095°17'0 0.0
2015-Mar-30 22:10N 29°44' W 095°17'0 0.0
2015-Mar-30 21:31N 29°44' W 095°17'0 0.0
2015-Mar-30 18:03N 29°44' W 095°17'0 0.0
2015-Mar-30 17:21N 29°44' W 095°17'0 0.0
2015-Mar-30 16:04N 29°44' W 095°17'0 0.0
2015-Mar-30 15:28N 29°44' W 095°17'0 0.0
2015-Mar-30 14:31N 29°44' W 095°17'0 0.0
2015-Mar-30 13:22N 29°44' W 095°17'0 0.0
2015-Mar-30 10:28N 29°44' W 095°17'0 0.0
2015-Mar-30 09:28N 29°44' W 095°17'0 0.0
2015-Mar-30 08:19N 29°44' W 095°17'0 0.0
2015-Mar-30 07:34N 29°44' W 095°17'0 0.0
2015-Mar-30 06:28N 29°44' W 095°17'0 0.0
2015-Mar-30 05:34N 29°44' W 095°17'0 0.0
2015-Mar-30 04:15N 29°44' W 095°17'0 0.0
2015-Mar-30 03:07N 29°44' W 095°17'0 0.0
2015-Mar-30 02:33N 29°44' W 095°17'0 0.0
2015-Mar-30 01:24N 29°44' W 095°17'0 0.0
2015-Mar-30 00:15N 29°44' W 095°17'0 0.0
2015-Mar-29 23:28N 29°44' W 095°17'0 0.0
2015-Mar-29 22:33N 29°44' W 095°17'0 0.0
2015-Mar-29 21:27N 29°44' W 095°17'0 0.0
2015-Mar-29 20:33N 29°44' W 095°17'0 0.0
2015-Mar-29 19:34N 29°44' W 095°17'0 0.0
2015-Mar-29 17:31N 29°44' W 095°17'4 3.8
2015-Mar-29 16:31N 29°44' W 095°12'5 5.6
2015-Mar-29 15:33N 29°45' W 095°06'6 6.1
2015-Mar-29 14:33N 29°42' W 094°60'1110.6
2015-Mar-29 13:33N 29°33' W 094°54'1111.2
2015-Mar-29 12:33N 29°22' W 094°48'12 1.8
2015-Mar-29 05:32N 29°13' W 094°39'0 0.0
2015-Mar-28 11:05N 29°13' W 094°39'0 0.0
2015-Mar-28 02:32N 29°13' W 094°38'  
2015-Mar-25 05:29N 29°54' W 089°54'1110.8
2015-Mar-25 04:27N 29°55' W 090°07'0 0.0
2015-Mar-24 11:26N 29°55' W 090°07'0 0.0
2015-Mar-24 09:26N 29°55' W 090°07'0 0.0
2015-Mar-24 06:17N 29°55' W 090°07'0 0.0
2015-Mar-24 03:14N 29°55' W 090°07'0 0.0
2015-Mar-24 01:32N 29°55' W 090°07'0 0.0
2015-Mar-24 00:23N 29°55' W 090°07'0 0.0
2015-Mar-23 18:05N 29°55' W 090°07'0 0.0
2015-Mar-23 11:14N 29°55' W 090°07'0 0.0
2015-Mar-23 09:29N 29°55' W 090°07'0 0.0
2015-Mar-23 06:08N 29°55' W 090°07'0 0.0
2015-Mar-23 04:29N 29°55' W 090°07'0 0.0
2015-Mar-23 01:14N 29°55' W 090°07'0 0.0
2015-Mar-23 00:29N 29°55' W 090°07'0 0.0
2015-Mar-22 21:23N 29°55' W 090°07'0 0.0
2015-Mar-22 16:08N 29°55' W 090°07'0 0.0
2015-Mar-22 11:26N 29°55' W 090°07'0 0.0
2015-Mar-22 06:14N 29°55' W 090°07'0 0.0
2015-Mar-22 01:16N 29°55' W 090°07'0 0.0
2015-Mar-21 17:13N 29°55' W 090°07'0 0.0
2015-Mar-21 14:16N 29°55' W 090°07'0 0.0
2015-Mar-21 09:26N 29°55' W 090°07'  

Dump ship's entire track history